sensor_id;sensor_type;location;lat;lon;timestamp;temperature;humidity
75190;HTU21D;69198;44.694;37.790;2023-08-24T13:17:51;28.55;35.50
75190;HTU21D;69198;44.694;37.790;2023-08-24T13:18:52;28.57;35.53
75190;HTU21D;69198;44.694;37.790;2023-08-24T13:19:53;28.59;36.63
75190;HTU21D;69198;44.694;37.790;2023-08-24T13:20:54;28.61;35.34
75190;HTU21D;69198;44.694;37.790;2023-08-24T13:21:55;28.64;34.40
75190;HTU21D;69198;44.694;37.790;2023-08-24T13:22:56;28.69;34.30
75190;HTU21D;69198;44.694;37.790;2023-08-24T13:23:57;28.72;34.82
75190;HTU21D;69198;44.694;37.790;2023-08-24T13:24:58;28.75;34.21
75190;HTU21D;69198;44.694;37.790;2023-08-24T13:26:00;28.76;33.91
75190;HTU21D;69198;44.694;37.790;2023-08-24T13:27:02;28.79;34.74
75190;HTU21D;69198;44.694;37.790;2023-08-24T13:28:03;28.80;34.41
75190;HTU21D;69198;44.694;37.790;2023-08-24T13:29:04;28.83;35.22
75190;HTU21D;69198;44.694;37.790;2023-08-24T13:30:06;28.84;35.35
75190;HTU21D;69198;44.694;37.790;2023-08-24T13:31:07;28.85;35.44
75190;HTU21D;69198;44.694;37.790;2023-08-24T13:32:09;28.87;34.82
75190;HTU21D;69198;44.694;37.790;2023-08-24T13:33:09;28.88;34.87
75190;HTU21D;69198;44.694;37.790;2023-08-24T13:34:13;28.89;35.27
75190;HTU21D;69198;44.694;37.790;2023-08-24T13:35:14;28.91;35.89
75190;HTU21D;69198;44.694;37.790;2023-08-24T13:36:15;28.88;36.26
75190;HTU21D;69198;44.694;37.790;2023-08-24T13:37:17;28.88;36.53
75190;HTU21D;69198;44.694;37.790;2023-08-24T13:38:18;28.87;35.43
75190;HTU21D;69198;44.694;37.790;2023-08-24T13:39:19;28.87;35.11
75190;HTU21D;69198;44.694;37.790;2023-08-24T13:40:20;28.88;35.71
75190;HTU21D;69198;44.694;37.790;2023-08-24T13:41:21;28.87;36.18
75190;HTU21D;69198;44.694;37.790;2023-08-24T13:42:22;28.88;36.49
75190;HTU21D;69198;44.694;37.790;2023-08-24T13:43:23;28.87;35.77
75190;HTU21D;69198;44.694;37.790;2023-08-24T13:44:25;28.85;36.21
75190;HTU21D;69198;44.694;37.790;2023-08-24T13:45:26;28.84;36.85
75190;HTU21D;69198;44.694;37.790;2023-08-24T13:46:27;28.84;36.14
75190;HTU21D;69198;44.694;37.790;2023-08-24T13:47:28;28.83;35.24
75190;HTU21D;69198;44.694;37.790;2023-08-24T13:48:29;28.82;35.80
75190;HTU21D;69198;44.694;37.790;2023-08-24T13:49:33;28.84;35.28
75190;HTU21D;69198;44.694;37.790;2023-08-24T13:50:34;28.82;35.40
75190;HTU21D;69198;44.694;37.790;2023-08-24T13:51:36;28.84;36.09
75190;HTU21D;69198;44.694;37.790;2023-08-24T13:52:37;28.82;35.99
75190;HTU21D;69198;44.694;37.790;2023-08-24T13:53:41;28.83;35.35
75190;HTU21D;69198;44.694;37.790;2023-08-24T13:54:42;28.87;34.58
75190;HTU21D;69198;44.694;37.790;2023-08-24T13:55:44;28.89;34.26
75190;HTU21D;69198;44.694;37.790;2023-08-24T13:56:46;28.89;34.08
75190;HTU21D;69198;44.694;37.790;2023-08-24T13:57:47;28.91;34.53
75190;HTU21D;69198;44.694;37.790;2023-08-24T13:58:48;28.92;35.24
75190;HTU21D;69198;44.694;37.790;2023-08-24T13:59:49;28.89;35.47
75190;HTU21D;69198;44.694;37.790;2023-08-24T14:00:57;28.87;35.75
75190;HTU21D;69198;44.694;37.790;2023-08-24T14:01:58;28.84;35.92
75190;HTU21D;69198;44.694;37.790;2023-08-24T14:02:59;28.82;35.56
75190;HTU21D;69198;44.694;37.790;2023-08-24T14:04:01;28.79;35.71
75190;HTU21D;69198;44.694;37.790;2023-08-24T14:05:03;28.77;36.01
75190;HTU21D;69198;44.694;37.790;2023-08-24T14:06:04;28.77;35.25
75190;HTU21D;69198;44.694;37.790;2023-08-24T14:07:05;28.75;34.99
75190;HTU21D;69198;44.694;37.790;2023-08-24T14:08:06;28.76;35.05
75190;HTU21D;69198;44.694;37.790;2023-08-24T14:09:08;28.76;35.49
75190;HTU21D;69198;44.694;37.790;2023-08-24T14:10:09;28.77;35.79
75190;HTU21D;69198;44.694;37.790;2023-08-24T14:11:10;28.76;37.40
75190;HTU21D;69198;44.694;37.790;2023-08-24T14:12:11;28.74;37.21
75190;HTU21D;69198;44.694;37.790;2023-08-24T14:13:12;28.73;36.97
75190;HTU21D;69198;44.694;37.790;2023-08-24T14:14:13;28.72;36.17
75190;HTU21D;69198;44.694;37.790;2023-08-24T14:15:15;28.70;35.34
75190;HTU21D;69198;44.694;37.790;2023-08-24T14:16:17;28.70;35.62
75190;HTU21D;69198;44.694;37.790;2023-08-24T14:17:18;28.68;36.29
75190;HTU21D;69198;44.694;37.790;2023-08-24T14:18:19;28.64;37.10
75190;HTU21D;69198;44.694;37.790;2023-08-24T14:19:20;28.64;35.91
75190;HTU21D;69198;44.694;37.790;2023-08-24T14:20:21;28.64;35.29
75190;HTU21D;69198;44.694;37.790;2023-08-24T14:21:22;28.62;34.86
75190;HTU21D;69198;44.694;37.790;2023-08-24T14:22:25;28.62;35.00
75190;HTU21D;69198;44.694;37.790;2023-08-24T14:23:26;28.63;34.94
75190;HTU21D;69198;44.694;37.790;2023-08-24T14:24:27;28.62;34.98
75190;HTU21D;69198;44.694;37.790;2023-08-24T14:25:28;28.61;35.37
75190;HTU21D;69198;44.694;37.790;2023-08-24T14:26:29;28.59;35.53
75190;HTU21D;69198;44.694;37.790;2023-08-24T14:27:30;28.56;35.53
75190;HTU21D;69198;44.694;37.790;2023-08-24T14:29:52;28.52;36.20
75190;HTU21D;69198;44.694;37.790;2023-08-24T14:30:52;28.49;36.38
75190;HTU21D;69198;44.694;37.790;2023-08-24T14:31:54;28.47;36.15
75190;HTU21D;69198;44.694;37.790;2023-08-24T14:32:55;28.43;36.37
75190;HTU21D;69198;44.694;37.790;2023-08-24T14:33:56;28.42;35.69
75190;HTU21D;69198;44.694;37.790;2023-08-24T14:34:57;28.41;35.53
75190;HTU21D;69198;44.694;37.790;2023-08-24T14:35:58;28.41;36.19
75190;HTU21D;69198;44.694;37.790;2023-08-24T14:36:59;28.41;35.82
75190;HTU21D;69198;44.694;37.790;2023-08-24T14:38:00;28.38;35.31
75190;HTU21D;69198;44.694;37.790;2023-08-24T14:39:01;28.35;34.94
75190;HTU21D;69198;44.694;37.790;2023-08-24T14:40:03;28.34;35.79
75190;HTU21D;69198;44.694;37.790;2023-08-24T14:41:04;28.34;36.40
75190;HTU21D;69198;44.694;37.790;2023-08-24T14:42:05;28.32;37.11
75190;HTU21D;69198;44.694;37.790;2023-08-24T14:43:06;28.31;36.86
75190;HTU21D;69198;44.694;37.790;2023-08-24T14:44:07;28.31;35.76
75190;HTU21D;69198;44.694;37.790;2023-08-24T14:45:08;28.31;34.95
75190;HTU21D;69198;44.694;37.790;2023-08-24T14:46:10;28.31;34.86
75190;HTU21D;69198;44.694;37.790;2023-08-24T14:47:11;28.31;34.95
75190;HTU21D;69198;44.694;37.790;2023-08-24T14:48:12;28.30;34.76
75190;HTU21D;69198;44.694;37.790;2023-08-24T14:49:13;28.28;34.74
75190;HTU21D;69198;44.694;37.790;2023-08-24T14:50:19;28.26;35.87
75190;HTU21D;69198;44.694;37.790;2023-08-24T14:51:20;28.24;35.73
75190;HTU21D;69198;44.694;37.790;2023-08-24T14:52:21;28.21;36.08
75190;HTU21D;69198;44.694;37.790;2023-08-24T14:53:23;28.17;36.22
75190;HTU21D;69198;44.694;37.790;2023-08-24T14:54:24;28.16;35.76
75190;HTU21D;69198;44.694;37.790;2023-08-24T14:55:25;28.16;35.68
75190;HTU21D;69198;44.694;37.790;2023-08-24T14:56:29;28.14;35.26
75190;HTU21D;69198;44.694;37.790;2023-08-24T14:57:29;28.13;35.11
75190;HTU21D;69198;44.694;37.790;2023-08-24T14:58:31;28.12;34.96
75190;HTU21D;69198;44.694;37.790;2023-08-24T14:59:32;28.11;35.28
75190;HTU21D;69198;44.694;37.790;2023-08-24T15:00:33;28.08;35.42
75190;HTU21D;69198;44.694;37.790;2023-08-24T15:01:34;28.06;35.64
75190;HTU21D;69198;44.694;37.790;2023-08-24T15:02:35;28.03;36.19
75190;HTU21D;69198;44.694;37.790;2023-08-24T15:03:37;28.02;36.14
75190;HTU21D;69198;44.694;37.790;2023-08-24T15:04:38;28.01;36.14
75190;HTU21D;69198;44.694;37.790;2023-08-24T15:05:44;28.00;36.16
75190;HTU21D;69198;44.694;37.790;2023-08-24T15:06:46;27.96;36.61
75190;HTU21D;69198;44.694;37.790;2023-08-24T15:07:47;27.94;37.20
75190;HTU21D;69198;44.694;37.790;2023-08-24T15:08:48;27.88;36.99
75190;HTU21D;69198;44.694;37.790;2023-08-24T15:09:50;27.83;37.60
75190;HTU21D;69198;44.694;37.790;2023-08-24T15:10:53;27.82;38.30
75190;HTU21D;69198;44.694;37.790;2023-08-24T15:11:54;27.78;37.95
75190;HTU21D;69198;44.694;37.790;2023-08-24T15:12:55;27.79;38.08
75190;HTU21D;69198;44.694;37.790;2023-08-24T15:13:56;27.76;38.37
75190;HTU21D;69198;44.694;37.790;2023-08-24T15:14:59;27.74;38.42
75190;HTU21D;69198;44.694;37.790;2023-08-24T15:16:00;27.72;38.17
75190;HTU21D;69198;44.694;37.790;2023-08-24T15:17:01;27.72;38.12
75190;HTU21D;69198;44.694;37.790;2023-08-24T15:18:02;27.67;38.08
75190;HTU21D;69198;44.694;37.790;2023-08-24T15:19:03;27.65;38.23
75190;HTU21D;69198;44.694;37.790;2023-08-24T15:20:05;27.59;38.33
75190;HTU21D;69198;44.694;37.790;2023-08-24T15:21:06;27.55;39.01
75190;HTU21D;69198;44.694;37.790;2023-08-24T15:22:08;27.51;39.58
75190;HTU21D;69198;44.694;37.790;2023-08-24T15:23:09;27.49;40.22
75190;HTU21D;69198;44.694;37.790;2023-08-24T15:24:11;27.44;41.17
75190;HTU21D;69198;44.694;37.790;2023-08-24T15:25:12;27.39;41.31
75190;HTU21D;69198;44.694;37.790;2023-08-24T15:26:13;27.36;41.65
75190;HTU21D;69198;44.694;37.790;2023-08-24T15:27:14;27.30;41.36
75190;HTU21D;69198;44.694;37.790;2023-08-24T15:28:15;27.26;41.05
75190;HTU21D;69198;44.694;37.790;2023-08-24T15:29:17;27.24;40.80
75190;HTU21D;69198;44.694;37.790;2023-08-24T15:30:19;27.21;40.48
75190;HTU21D;69198;44.694;37.790;2023-08-24T15:31:20;27.16;41.07
75190;HTU21D;69198;44.694;37.790;2023-08-24T15:32:21;27.16;40.88
75190;HTU21D;69198;44.694;37.790;2023-08-24T15:33:22;27.14;40.32
75190;HTU21D;69198;44.694;37.790;2023-08-24T15:34:23;27.09;41.48
75190;HTU21D;69198;44.694;37.790;2023-08-24T15:35:24;27.07;40.70
75190;HTU21D;69198;44.694;37.790;2023-08-24T15:36:25;27.01;41.08
75190;HTU21D;69198;44.694;37.790;2023-08-24T15:37:28;26.99;42.34
75190;HTU21D;69198;44.694;37.790;2023-08-24T15:38:29;26.96;42.65
75190;HTU21D;69198;44.694;37.790;2023-08-24T15:39:38;26.93;42.33
75190;HTU21D;69198;44.694;37.790;2023-08-24T15:40:39;26.90;41.52
75190;HTU21D;69198;44.694;37.790;2023-08-24T15:41:40;26.89;41.20
75190;HTU21D;69198;44.694;37.790;2023-08-24T15:42:41;26.84;41.81
75190;HTU21D;69198;44.694;37.790;2023-08-24T15:43:42;26.82;42.10
75190;HTU21D;69198;44.694;37.790;2023-08-24T15:44:43;26.77;42.52
75190;HTU21D;69198;44.694;37.790;2023-08-24T15:45:44;26.77;41.93
75190;HTU21D;69198;44.694;37.790;2023-08-24T15:46:45;26.78;41.58
75190;HTU21D;69198;44.694;37.790;2023-08-24T15:47:46;26.73;42.90
75190;HTU21D;69198;44.694;37.790;2023-08-24T15:48:47;26.69;43.10
75190;HTU21D;69198;44.694;37.790;2023-08-24T15:49:48;26.67;42.81
75190;HTU21D;69198;44.694;37.790;2023-08-24T15:50:49;26.64;42.96
75190;HTU21D;69198;44.694;37.790;2023-08-24T15:51:51;26.58;43.29
75190;HTU21D;69198;44.694;37.790;2023-08-24T15:52:52;26.60;42.78
75190;HTU21D;69198;44.694;37.790;2023-08-24T15:53:59;26.56;42.90
75190;HTU21D;69198;44.694;37.790;2023-08-24T15:55:01;26.53;43.73
75190;HTU21D;69198;44.694;37.790;2023-08-24T15:56:02;26.50;43.51
75190;HTU21D;69198;44.694;37.790;2023-08-24T15:57:03;26.47;43.05
75190;HTU21D;69198;44.694;37.790;2023-08-24T15:58:04;26.45;42.90
75190;HTU21D;69198;44.694;37.790;2023-08-24T15:59:05;26.42;43.29
75190;HTU21D;69198;44.694;37.790;2023-08-24T16:00:07;26.41;42.98
75190;HTU21D;69198;44.694;37.790;2023-08-24T16:01:14;26.38;43.58
75190;HTU21D;69198;44.694;37.790;2023-08-24T16:02:15;26.36;43.58
75190;HTU21D;69198;44.694;37.790;2023-08-24T16:03:16;26.34;44.24
75190;HTU21D;69198;44.694;37.790;2023-08-24T16:04:17;26.32;44.16
75190;HTU21D;69198;44.694;37.790;2023-08-24T16:05:18;26.26;44.21
75190;HTU21D;69198;44.694;37.790;2023-08-24T16:06:19;26.22;44.09
75190;HTU21D;69198;44.694;37.790;2023-08-24T16:07:20;26.17;43.80
75190;HTU21D;69198;44.694;37.790;2023-08-24T16:08:21;26.10;44.09
75190;HTU21D;69198;44.694;37.790;2023-08-24T16:09:28;26.10;44.81
75190;HTU21D;69198;44.694;37.790;2023-08-24T16:10:31;26.08;45.13
75190;HTU21D;69198;44.694;37.790;2023-08-24T16:11:32;26.07;44.80
75190;HTU21D;69198;44.694;37.790;2023-08-24T16:12:33;26.04;44.64
75190;HTU21D;69198;44.694;37.790;2023-08-24T16:13:34;26.02;45.25
75190;HTU21D;69198;44.694;37.790;2023-08-24T16:14:35;25.98;45.55
75190;HTU21D;69198;44.694;37.790;2023-08-24T16:15:36;25.97;46.03
75190;HTU21D;69198;44.694;37.790;2023-08-24T16:16:37;25.98;45.44
75190;HTU21D;69198;44.694;37.790;2023-08-24T16:17:38;25.96;45.87
75190;HTU21D;69198;44.694;37.790;2023-08-24T16:18:39;25.92;45.88
75190;HTU21D;69198;44.694;37.790;2023-08-24T16:19:44;25.90;46.02
75190;HTU21D;69198;44.694;37.790;2023-08-24T16:20:45;25.90;46.64
75190;HTU21D;69198;44.694;37.790;2023-08-24T16:21:46;25.88;46.39
75190;HTU21D;69198;44.694;37.790;2023-08-24T16:22:47;25.87;46.28
75190;HTU21D;69198;44.694;37.790;2023-08-24T16:23:48;25.84;46.44
75190;HTU21D;69198;44.694;37.790;2023-08-24T16:24:49;25.83;47.25
75190;HTU21D;69198;44.694;37.790;2023-08-24T16:25:51;25.81;47.92
75190;HTU21D;69198;44.694;37.790;2023-08-24T16:26:52;25.79;47.99
75190;HTU21D;69198;44.694;37.790;2023-08-24T16:27:53;25.77;48.11
75190;HTU21D;69198;44.694;37.790;2023-08-24T16:28:54;25.74;47.74
75190;HTU21D;69198;44.694;37.790;2023-08-24T16:29:55;25.75;47.67
75190;HTU21D;69198;44.694;37.790;2023-08-24T16:30:56;25.75;47.94
75190;HTU21D;69198;44.694;37.790;2023-08-24T16:31:58;25.71;48.44
75190;HTU21D;69198;44.694;37.790;2023-08-24T16:32:59;25.69;48.93
75190;HTU21D;69198;44.694;37.790;2023-08-24T16:34:00;25.68;49.24
75190;HTU21D;69198;44.694;37.790;2023-08-24T16:35:01;25.67;49.21
75190;HTU21D;69198;44.694;37.790;2023-08-24T16:36:02;25.63;49.18
75190;HTU21D;69198;44.694;37.790;2023-08-24T16:37:03;25.60;48.95
75190;HTU21D;69198;44.694;37.790;2023-08-24T16:38:04;25.56;48.28
75190;HTU21D;69198;44.694;37.790;2023-08-24T16:39:08;25.53;48.02
75190;HTU21D;69198;44.694;37.790;2023-08-24T16:40:23;25.51;48.08
75190;HTU21D;69198;44.694;37.790;2023-08-24T16:41:53;25.44;47.80
75190;HTU21D;69198;44.694;37.790;2023-08-24T16:42:54;25.40;47.50
75190;HTU21D;69198;44.694;37.790;2023-08-24T16:43:55;25.36;47.34
75190;HTU21D;69198;44.694;37.790;2023-08-24T16:44:56;25.35;47.29
75190;HTU21D;69198;44.694;37.790;2023-08-24T16:45:57;25.34;47.05
75190;HTU21D;69198;44.694;37.790;2023-08-24T16:46:58;25.31;47.26
75190;HTU21D;69198;44.694;37.790;2023-08-24T16:47:59;25.31;47.35
75190;HTU21D;69198;44.694;37.790;2023-08-24T16:49:00;25.31;47.42
75190;HTU21D;69198;44.694;37.790;2023-08-24T16:50:02;25.25;47.60
75190;HTU21D;69198;44.694;37.790;2023-08-24T16:51:04;25.23;47.50
75190;HTU21D;69198;44.694;37.790;2023-08-24T16:52:05;25.19;47.28
75190;HTU21D;69198;44.694;37.790;2023-08-24T16:53:06;25.18;47.73
75190;HTU21D;69198;44.694;37.790;2023-08-24T16:54:07;25.16;47.86
75190;HTU21D;69198;44.694;37.790;2023-08-24T16:55:09;25.14;47.69
75190;HTU21D;69198;44.694;37.790;2023-08-24T16:56:11;25.10;47.64
75190;HTU21D;69198;44.694;37.790;2023-08-24T16:57:11;25.12;47.56
75190;HTU21D;69198;44.694;37.790;2023-08-24T16:58:13;25.10;47.60
75190;HTU21D;69198;44.694;37.790;2023-08-24T16:59:13;25.10;47.92
75190;HTU21D;69198;44.694;37.790;2023-08-24T17:00:15;25.08;47.79
75190;HTU21D;69198;44.694;37.790;2023-08-24T17:01:16;25.07;47.60
75190;HTU21D;69198;44.694;37.790;2023-08-24T17:02:17;25.09;47.74
75190;HTU21D;69198;44.694;37.790;2023-08-24T17:03:18;25.09;47.86
75190;HTU21D;69198;44.694;37.790;2023-08-24T17:04:19;25.06;47.88
75190;HTU21D;69198;44.694;37.790;2023-08-24T17:05:20;25.08;47.75
75190;HTU21D;69198;44.694;37.790;2023-08-24T17:06:21;25.07;47.59
75190;HTU21D;69198;44.694;37.790;2023-08-24T17:07:25;25.04;47.46
75190;HTU21D;69198;44.694;37.790;2023-08-24T17:08:26;25.02;47.34
75190;HTU21D;69198;44.694;37.790;2023-08-24T17:09:27;25.01;47.25
75190;HTU21D;69198;44.694;37.790;2023-08-24T17:10:28;24.97;47.17
75190;HTU21D;69198;44.694;37.790;2023-08-24T17:11:29;24.99;47.25
75190;HTU21D;69198;44.694;37.790;2023-08-24T17:12:31;24.94;47.06
75190;HTU21D;69198;44.694;37.790;2023-08-24T17:13:31;24.94;46.93
75190;HTU21D;69198;44.694;37.790;2023-08-24T17:14:32;24.93;46.76
75190;HTU21D;69198;44.694;37.790;2023-08-24T17:15:34;24.92;46.62
75190;HTU21D;69198;44.694;37.790;2023-08-24T17:16:35;24.88;46.66
75190;HTU21D;69198;44.694;37.790;2023-08-24T17:17:36;24.87;46.81
75190;HTU21D;69198;44.694;37.790;2023-08-24T17:18:37;24.85;46.79
75190;HTU21D;69198;44.694;37.790;2023-08-24T17:19:39;24.84;46.66
75190;HTU21D;69198;44.694;37.790;2023-08-24T17:20:40;24.84;46.50
75190;HTU21D;69198;44.694;37.790;2023-08-24T17:21:41;24.80;46.54
75190;HTU21D;69198;44.694;37.790;2023-08-24T17:22:42;24.78;46.56
75190;HTU21D;69198;44.694;37.790;2023-08-24T17:23:43;24.73;46.59
75190;HTU21D;69198;44.694;37.790;2023-08-24T17:24:45;24.71;46.67
75190;HTU21D;69198;44.694;37.790;2023-08-24T17:25:46;24.70;46.69
75190;HTU21D;69198;44.694;37.790;2023-08-24T17:26:47;24.68;46.67
75190;HTU21D;69198;44.694;37.790;2023-08-24T17:27:48;24.69;46.64
75190;HTU21D;69198;44.694;37.790;2023-08-24T17:28:50;24.64;46.67
75190;HTU21D;69198;44.694;37.790;2023-08-24T17:29:51;24.61;46.73
75190;HTU21D;69198;44.694;37.790;2023-08-24T17:30:53;24.57;46.78
75190;HTU21D;69198;44.694;37.790;2023-08-24T17:31:55;24.56;46.79
75190;HTU21D;69198;44.694;37.790;2023-08-24T17:32:56;24.55;46.74
75190;HTU21D;69198;44.694;37.790;2023-08-24T17:33:57;24.53;46.76
75190;HTU21D;69198;44.694;37.790;2023-08-24T17:34:58;24.49;46.79
75190;HTU21D;69198;44.694;37.790;2023-08-24T17:35:59;24.45;46.82
75190;HTU21D;69198;44.694;37.790;2023-08-24T17:37:02;24.40;46.87
75190;HTU21D;69198;44.694;37.790;2023-08-24T17:38:03;24.36;46.89
75190;HTU21D;69198;44.694;37.790;2023-08-24T17:39:04;24.33;46.96
75190;HTU21D;69198;44.694;37.790;2023-08-24T17:40:09;24.29;47.02
75190;HTU21D;69198;44.694;37.790;2023-08-24T17:41:13;24.26;47.07
75190;HTU21D;69198;44.694;37.790;2023-08-24T17:42:14;24.25;47.09
75190;HTU21D;69198;44.694;37.790;2023-08-24T17:43:15;24.23;47.07
75190;HTU21D;69198;44.694;37.790;2023-08-24T17:44:16;24.20;47.02
75190;HTU21D;69198;44.694;37.790;2023-08-24T17:45:17;24.20;46.94
75190;HTU21D;69198;44.694;37.790;2023-08-24T17:46:22;24.18;46.93
75190;HTU21D;69198;44.694;37.790;2023-08-24T17:47:23;24.16;46.91
75190;HTU21D;69198;44.694;37.790;2023-08-24T17:48:24;24.15;46.91
75190;HTU21D;69198;44.694;37.790;2023-08-24T17:49:25;24.12;46.93
75190;HTU21D;69198;44.694;37.790;2023-08-24T17:50:26;24.10;46.97
75190;HTU21D;69198;44.694;37.790;2023-08-24T17:51:27;24.09;47.02
75190;HTU21D;69198;44.694;37.790;2023-08-24T17:52:32;24.03;47.01
75190;HTU21D;69198;44.694;37.790;2023-08-24T17:53:34;24.02;46.99
75190;HTU21D;69198;44.694;37.790;2023-08-24T17:54:35;24.00;47.01
75190;HTU21D;69198;44.694;37.790;2023-08-24T17:55:36;23.98;46.92
75190;HTU21D;69198;44.694;37.790;2023-08-24T17:56:37;23.97;46.81
75190;HTU21D;69198;44.694;37.790;2023-08-24T17:57:38;23.98;46.78
75190;HTU21D;69198;44.694;37.790;2023-08-24T17:58:39;23.98;46.76
75190;HTU21D;69198;44.694;37.790;2023-08-24T17:59:40;23.96;46.71
75190;HTU21D;69198;44.694;37.790;2023-08-24T18:00:41;23.95;46.62
75190;HTU21D;69198;44.694;37.790;2023-08-24T18:01:42;23.97;46.59
75190;HTU21D;69198;44.694;37.790;2023-08-24T18:02:43;23.97;46.56
75190;HTU21D;69198;44.694;37.790;2023-08-24T18:03:45;23.95;46.51
75190;HTU21D;69198;44.694;37.790;2023-08-24T18:04:46;23.92;46.36
75190;HTU21D;69198;44.694;37.790;2023-08-24T18:05:47;23.92;46.22
75190;HTU21D;69198;44.694;37.790;2023-08-24T18:06:51;23.94;46.00
75190;HTU21D;69198;44.694;37.790;2023-08-24T18:07:52;23.97;45.86
75190;HTU21D;69198;44.694;37.790;2023-08-24T18:08:53;23.97;45.81
75190;HTU21D;69198;44.694;37.790;2023-08-24T18:09:54;24.00;45.67
75190;HTU21D;69198;44.694;37.790;2023-08-24T18:11:02;24.02;45.53
75190;HTU21D;69198;44.694;37.790;2023-08-24T18:12:06;24.02;45.42
75190;HTU21D;69198;44.694;37.790;2023-08-24T18:13:08;24.02;45.32
75190;HTU21D;69198;44.694;37.790;2023-08-24T18:14:09;24.02;45.24
75190;HTU21D;69198;44.694;37.790;2023-08-24T18:15:10;23.99;45.16
75190;HTU21D;69198;44.694;37.790;2023-08-24T18:16:11;23.97;45.06
75190;HTU21D;69198;44.694;37.790;2023-08-24T18:17:12;23.96;45.03
75190;HTU21D;69198;44.694;37.790;2023-08-24T18:18:13;23.92;45.03
75190;HTU21D;69198;44.694;37.790;2023-08-24T18:19:14;23.90;45.06
75190;HTU21D;69198;44.694;37.790;2023-08-24T18:20:15;23.88;45.19
75190;HTU21D;69198;44.694;37.790;2023-08-24T18:21:16;23.88;45.56
75190;HTU21D;69198;44.694;37.790;2023-08-24T18:22:18;23.91;45.58
75190;HTU21D;69198;44.694;37.790;2023-08-24T18:23:18;23.90;45.46
75190;HTU21D;69198;44.694;37.790;2023-08-24T18:24:20;23.90;45.29
75190;HTU21D;69198;44.694;37.790;2023-08-24T18:25:23;23.92;45.33
75190;HTU21D;69198;44.694;37.790;2023-08-24T18:26:24;23.94;45.25
75190;HTU21D;69198;44.694;37.790;2023-08-24T18:27:25;23.94;45.19
75190;HTU21D;69198;44.694;37.790;2023-08-24T18:28:26;23.91;45.18
75190;HTU21D;69198;44.694;37.790;2023-08-24T18:29:27;23.89;45.13
75190;HTU21D;69198;44.694;37.790;2023-08-24T18:30:28;23.88;45.13
75190;HTU21D;69198;44.694;37.790;2023-08-24T18:31:29;23.88;45.05
75190;HTU21D;69198;44.694;37.790;2023-08-24T18:32:30;23.88;45.01
75190;HTU21D;69198;44.694;37.790;2023-08-24T18:33:31;23.86;44.99
75190;HTU21D;69198;44.694;37.790;2023-08-24T18:34:32;23.86;45.02
75190;HTU21D;69198;44.694;37.790;2023-08-24T18:35:33;23.84;45.07
75190;HTU21D;69198;44.694;37.790;2023-08-24T18:36:35;23.85;45.12
75190;HTU21D;69198;44.694;37.790;2023-08-24T18:37:36;23.85;45.28
75190;HTU21D;69198;44.694;37.790;2023-08-24T18:38:37;23.85;45.43
75190;HTU21D;69198;44.694;37.790;2023-08-24T18:39:38;23.85;45.48
75190;HTU21D;69198;44.694;37.790;2023-08-24T18:40:39;23.85;45.48
75190;HTU21D;69198;44.694;37.790;2023-08-24T18:41:40;23.82;45.38
75190;HTU21D;69198;44.694;37.790;2023-08-24T18:42:41;23.79;45.17
75190;HTU21D;69198;44.694;37.790;2023-08-24T18:43:42;23.79;44.99
75190;HTU21D;69198;44.694;37.790;2023-08-24T18:44:44;23.79;44.86
75190;HTU21D;69198;44.694;37.790;2023-08-24T18:46:01;23.79;44.74
75190;HTU21D;69198;44.694;37.790;2023-08-24T18:47:05;23.72;44.86
75190;HTU21D;69198;44.694;37.790;2023-08-24T18:48:06;23.72;44.83
75190;HTU21D;69198;44.694;37.790;2023-08-24T18:49:07;23.73;44.77
75190;HTU21D;69198;44.694;37.790;2023-08-24T18:50:11;23.73;44.79
75190;HTU21D;69198;44.694;37.790;2023-08-24T18:51:12;23.73;44.74
75190;HTU21D;69198;44.694;37.790;2023-08-24T18:52:14;23.71;44.67
75190;HTU21D;69198;44.694;37.790;2023-08-24T18:53:15;23.72;44.61
75190;HTU21D;69198;44.694;37.790;2023-08-24T18:54:19;23.71;44.63
75190;HTU21D;69198;44.694;37.790;2023-08-24T18:55:20;23.68;44.67
75190;HTU21D;69198;44.694;37.790;2023-08-24T18:56:22;23.67;44.65
75190;HTU21D;69198;44.694;37.790;2023-08-24T18:57:23;23.68;44.61
75190;HTU21D;69198;44.694;37.790;2023-08-24T18:58:25;23.68;44.62
75190;HTU21D;69198;44.694;37.790;2023-08-24T18:59:26;23.71;44.57
75190;HTU21D;69198;44.694;37.790;2023-08-24T19:00:28;23.72;44.53
75190;HTU21D;69198;44.694;37.790;2023-08-24T19:01:29;23.71;44.52
75190;HTU21D;69198;44.694;37.790;2023-08-24T19:02:34;23.71;44.54
75190;HTU21D;69198;44.694;37.790;2023-08-24T19:03:35;23.73;44.52
75190;HTU21D;69198;44.694;37.790;2023-08-24T19:04:36;23.73;44.51
75190;HTU21D;69198;44.694;37.790;2023-08-24T19:05:37;23.73;44.52
75190;HTU21D;69198;44.694;37.790;2023-08-24T19:06:39;23.72;44.54
75190;HTU21D;69198;44.694;37.790;2023-08-24T19:07:40;23.75;44.56
75190;HTU21D;69198;44.694;37.790;2023-08-24T19:08:41;23.75;44.58
75190;HTU21D;69198;44.694;37.790;2023-08-24T19:09:42;23.75;44.51
75190;HTU21D;69198;44.694;37.790;2023-08-24T19:10:43;23.74;44.48
75190;HTU21D;69198;44.694;37.790;2023-08-24T19:11:45;23.73;44.53
75190;HTU21D;69198;44.694;37.790;2023-08-24T19:12:46;23.76;44.61
75190;HTU21D;69198;44.694;37.790;2023-08-24T19:13:50;23.75;44.66
75190;HTU21D;69198;44.694;37.790;2023-08-24T19:14:52;23.75;44.64
75190;HTU21D;69198;44.694;37.790;2023-08-24T19:15:59;23.75;44.61
75190;HTU21D;69198;44.694;37.790;2023-08-24T19:17:01;23.74;44.61
75190;HTU21D;69198;44.694;37.790;2023-08-24T19:18:03;23.73;44.61
75190;HTU21D;69198;44.694;37.790;2023-08-24T19:19:04;23.73;44.67
75190;HTU21D;69198;44.694;37.790;2023-08-24T19:20:05;23.74;44.76
75190;HTU21D;69198;44.694;37.790;2023-08-24T19:21:07;23.72;44.86
75190;HTU21D;69198;44.694;37.790;2023-08-24T19:22:11;23.71;44.92
75190;HTU21D;69198;44.694;37.790;2023-08-24T19:23:12;23.70;44.99
75190;HTU21D;69198;44.694;37.790;2023-08-24T19:24:13;23.71;45.02
75190;HTU21D;69198;44.694;37.790;2023-08-24T19:25:14;23.73;45.02
75190;HTU21D;69198;44.694;37.790;2023-08-24T19:26:15;23.70;45.04
75190;HTU21D;69198;44.694;37.790;2023-08-24T19:27:16;23.70;45.31
75190;HTU21D;69198;44.694;37.790;2023-08-24T19:28:17;23.71;45.45
75190;HTU21D;69198;44.694;37.790;2023-08-24T19:29:19;23.70;45.48
75190;HTU21D;69198;44.694;37.790;2023-08-24T19:30:20;23.68;45.53
75190;HTU21D;69198;44.694;37.790;2023-08-24T19:31:21;23.67;45.60
75190;HTU21D;69198;44.694;37.790;2023-08-24T19:32:22;23.68;45.70
75190;HTU21D;69198;44.694;37.790;2023-08-24T19:33:23;23.66;45.81
75190;HTU21D;69198;44.694;37.790;2023-08-24T19:34:24;23.64;45.85
75190;HTU21D;69198;44.694;37.790;2023-08-24T19:35:25;23.61;45.97
75190;HTU21D;69198;44.694;37.790;2023-08-24T19:36:29;23.60;46.14